createdAt,value
2017-04-07T00:00:11.466Z,79.52
2017-04-07T00:01:11.462Z,79.81
2017-04-07T00:02:11.448Z,78.77
2017-04-07T00:03:11.438Z,79.24
2017-04-07T00:04:11.432Z,79.05
2017-04-07T00:05:11.420Z,78.48
2017-04-07T00:06:11.410Z,79.14
2017-04-07T00:07:11.402Z,78.57
2017-04-07T00:08:11.392Z,79.24
2017-04-07T00:09:11.382Z,78.86
2017-04-07T00:10:11.373Z,79.24
2017-04-07T00:11:11.364Z,79.81
2017-04-07T00:12:11.355Z,79.91
2017-04-07T00:13:11.347Z,80.19
2017-04-07T00:14:11.338Z,80.1
2017-04-07T00:15:11.330Z,80.29
2017-04-07T00:16:11.325Z,80.76
2017-04-07T00:17:11.310Z,80.95
2017-04-07T00:18:11.301Z,80.57
2017-04-07T00:19:11.292Z,81.24
2017-04-07T00:20:11.283Z,81.24
2017-04-07T00:21:11.275Z,81.9
2017-04-07T00:22:11.264Z,82.48
2017-04-07T00:23:11.255Z,82.67
2017-04-07T00:24:10.942Z,82.95
2017-04-07T00:25:11.236Z,83.52
2017-04-07T00:26:11.229Z,84.09
2017-04-07T00:27:11.253Z,84.33
2017-04-07T00:28:11.208Z,84.52
2017-04-07T00:29:11.199Z,85.19
2017-04-07T00:30:11.191Z,85.95
2017-04-07T00:31:11.183Z,85.66
2017-04-07T00:32:11.175Z,85.66
2017-04-07T00:33:11.165Z,86.33
2017-04-07T00:34:11.153Z,86.61
2017-04-07T00:35:11.145Z,87.09
2017-04-07T00:36:11.135Z,87.47
2017-04-07T00:37:11.124Z,87.66
2017-04-07T00:38:11.115Z,88.13
2017-04-07T00:39:11.107Z,88.13
2017-04-07T00:40:11.099Z,88.23
2017-04-07T00:41:11.088Z,88.04
2017-04-07T00:42:10.775Z,89.18
2017-04-07T00:43:11.070Z,88.52
2017-04-07T00:44:11.059Z,89
2017-04-07T00:45:11.049Z,89.28
2017-04-07T00:46:11.039Z,89.47
2017-04-07T00:47:11.031Z,89.09
2017-04-07T00:48:11.021Z,89.37
2017-04-07T00:49:11.013Z,89.18
2017-04-07T00:50:11.000Z,90.42
2017-04-07T00:51:10.992Z,89.85
2017-04-07T00:52:10.987Z,90.33
2017-04-07T00:53:10.973Z,90.52
2017-04-07T00:54:10.966Z,90.52
2017-04-07T00:55:10.954Z,90.61
2017-04-07T00:56:10.944Z,90.61
2017-04-07T00:57:10.935Z,90.99
2017-04-07T00:58:10.924Z,90.8
2017-04-07T00:59:10.917Z,90.7
2017-04-07T01:00:10.905Z,90.7
2017-04-07T01:01:10.897Z,90.8
2017-04-07T01:02:10.889Z,91.08
2017-04-07T01:03:10.883Z,90.99
2017-04-07T01:04:10.866Z,91.08
2017-04-07T01:05:11.158Z,90.8
2017-04-07T01:06:10.848Z,90.7
2017-04-07T01:07:10.837Z,90.89
2017-04-07T01:08:10.828Z,91.66
2017-04-07T01:09:10.820Z,91.66
2017-04-07T01:10:11.110Z,91.47
2017-04-07T01:11:10.798Z,91.66
2017-04-07T01:12:10.789Z,91.66
2017-04-07T01:13:10.781Z,91.61
2017-04-07T01:14:10.770Z,91.99
2017-04-07T01:15:11.060Z,91.99
2017-04-07T01:16:10.751Z,92.32
2017-04-07T01:17:10.741Z,91.89
2017-04-07T01:18:10.731Z,91.89
2017-04-07T01:19:10.721Z,92.18
2017-04-07T01:20:10.963Z,92.03
2017-04-07T01:21:10.703Z,92.18
2017-04-07T01:22:10.692Z,92.22
2017-04-07T01:23:10.682Z,92.18
2017-04-07T01:24:10.671Z,92.03
2017-04-07T01:25:10.919Z,91.94
2017-04-07T01:26:10.349Z,92.7
2017-04-07T01:27:10.642Z,92.22
2017-04-07T01:28:10.634Z,92.66
2017-04-07T01:29:10.623Z,92.22
2017-04-07T01:30:10.864Z,91.89
2017-04-07T01:31:10.604Z,91.89
2017-04-07T01:32:10.596Z,92.13
2017-04-07T01:33:10.584Z,92.08
2017-04-07T01:34:10.574Z,92.08
2017-04-07T01:35:10.916Z,92.08
2017-04-07T01:36:10.555Z,92.13
2017-04-07T01:37:10.547Z,92.18
2017-04-07T01:38:10.535Z,91.99
2017-04-07T01:39:10.525Z,92.27
2017-04-07T01:40:10.767Z,92.08
2017-04-07T01:41:10.507Z,92.18
2017-04-07T01:42:10.498Z,92.13
2017-04-07T01:43:10.486Z,92.13
2017-04-07T01:44:10.477Z,91.85
2017-04-07T01:45:10.766Z,92.13
2017-04-07T01:46:10.460Z,91.99
2017-04-07T01:47:10.448Z,91.42
2017-04-07T01:48:10.438Z,91.47
2017-04-07T01:49:10.437Z,91.56
2017-04-07T01:50:10.719Z,91.47
2017-04-07T01:51:10.408Z,91.66
2017-04-07T01:52:10.399Z,91.52
2017-04-07T01:53:10.391Z,91.56
2017-04-07T01:54:10.380Z,90.61
2017-04-07T01:55:10.620Z,90.75
2017-04-07T01:56:10.361Z,90.94
2017-04-07T01:57:10.350Z,90.8
2017-04-07T01:58:10.342Z,90.61
2017-04-07T01:59:10.330Z,90.47
2017-04-07T02:00:10.571Z,90.37
2017-04-07T02:01:10.312Z,90.04
2017-04-07T02:02:10.303Z,90
2017-04-07T02:03:10.291Z,90.37
2017-04-07T02:04:10.284Z,90.37
2017-04-07T02:05:10.524Z,89.85
2017-04-07T02:06:10.261Z,90.09
2017-04-07T02:07:10.252Z,90.33
2017-04-07T02:08:10.243Z,90.14
2017-04-07T02:09:10.232Z,89.37
2017-04-07T02:10:10.573Z,89.37
2017-04-07T02:11:10.214Z,89.18
2017-04-07T02:12:10.204Z,89.09
2017-04-07T02:13:10.193Z,89
2017-04-07T02:14:10.184Z,88.8
2017-04-07T02:15:09.871Z,88.52
2017-04-07T02:16:10.165Z,89
2017-04-07T02:17:10.155Z,88.9
2017-04-07T02:18:10.146Z,89.09
2017-04-07T02:19:10.134Z,88.13
2017-04-07T02:20:10.126Z,88.33
2017-04-07T02:21:10.115Z,88.52
2017-04-07T02:22:10.106Z,88.13
2017-04-07T02:23:10.102Z,88.52
2017-04-07T02:24:10.085Z,88.33
2017-04-07T02:25:10.077Z,87.95
2017-04-07T02:26:09.764Z,87.57
2017-04-07T02:27:10.057Z,87.76
2017-04-07T02:28:10.051Z,87.57
2017-04-07T02:29:10.040Z,87.57
2017-04-07T02:30:10.028Z,87.47
2017-04-07T02:31:10.019Z,86.9
2017-04-07T02:32:10.010Z,86.99
2017-04-07T02:33:10.008Z,86.52
2017-04-07T02:34:09.989Z,86.33
2017-04-07T02:35:09.979Z,86.33
2017-04-07T02:36:09.971Z,86.33
2017-04-07T02:37:09.961Z,86.8
2017-04-07T02:38:09.951Z,85.95
2017-04-07T02:39:09.939Z,86.61
2017-04-07T02:40:09.931Z,85.95
2017-04-07T02:41:09.921Z,86.8
2017-04-07T02:42:09.609Z,86.8
2017-04-07T02:43:09.901Z,86.24
2017-04-07T02:44:09.895Z,86.61
2017-04-07T02:45:09.883Z,86.14
2017-04-07T02:46:09.871Z,85.76
2017-04-07T02:47:09.863Z,85.66
2017-04-07T02:48:09.858Z,85.57
2017-04-07T02:49:09.845Z,85.47
2017-04-07T02:50:09.835Z,85.38
2017-04-07T02:51:09.826Z,85.19
2017-04-07T02:52:09.816Z,85.38
2017-04-07T02:53:09.804Z,85.19
2017-04-07T02:54:09.491Z,85.19
2017-04-07T02:55:09.786Z,84.91
2017-04-07T02:56:09.776Z,84.91
2017-04-07T02:57:09.765Z,84.72
2017-04-07T02:58:09.756Z,84.91
2017-04-07T02:59:09.747Z,84.72
2017-04-07T03:00:09.737Z,84.24
2017-04-07T03:01:09.728Z,84.72
2017-04-07T03:02:09.414Z,84.52
2017-04-07T03:03:09.707Z,84.24
2017-04-07T03:04:09.394Z,83.95
2017-04-07T03:05:09.690Z,84.24
2017-04-07T03:06:09.681Z,83.95
2017-04-07T03:07:09.670Z,84.33
2017-04-07T03:08:09.662Z,84.91
2017-04-07T03:09:09.650Z,85.57
2017-04-07T03:10:09.642Z,85.38
2017-04-07T03:11:09.637Z,85.76
2017-04-07T03:12:09.622Z,85.47
2017-04-07T03:13:09.611Z,85.57
2017-04-07T03:14:09.632Z,85.76
2017-04-07T03:15:09.592Z,85.57
2017-04-07T03:16:09.582Z,86.43
2017-04-07T03:17:09.574Z,86.52
2017-04-07T03:18:09.565Z,86.43
2017-04-07T03:19:09.553Z,86.9
2017-04-07T03:20:09.242Z,87.47
2017-04-07T03:21:09.535Z,87.76
2017-04-07T03:22:09.526Z,87.85
2017-04-07T03:23:09.517Z,87.19
2017-04-07T03:24:09.507Z,87.85
2017-04-07T03:25:09.498Z,88.33
2017-04-07T03:26:09.488Z,88.42
2017-04-07T03:27:09.478Z,88.42
2017-04-07T03:28:09.467Z,89
2017-04-07T03:29:09.461Z,89.09
2017-04-07T03:30:09.451Z,88.9
2017-04-07T03:31:09.439Z,88.71
2017-04-07T03:32:09.430Z,88.71
2017-04-07T03:33:09.419Z,89.18
2017-04-07T03:34:09.412Z,89
2017-04-07T03:35:09.399Z,88.9
2017-04-07T03:36:09.392Z,88.8
2017-04-07T03:37:09.379Z,88.9
2017-04-07T03:38:09.373Z,89.09
2017-04-07T03:39:09.363Z,89.09
2017-04-07T03:40:09.351Z,89
2017-04-07T03:41:09.342Z,89.09
2017-04-07T03:42:09.333Z,89.18
2017-04-07T03:43:09.322Z,88.9
2017-04-07T03:44:09.009Z,88.71
2017-04-07T03:45:09.302Z,88.9
2017-04-07T03:46:09.293Z,89.09
2017-04-07T03:47:09.283Z,88.33
2017-04-07T03:48:09.272Z,88.52
2017-04-07T03:49:09.261Z,88.42
2017-04-07T03:50:08.950Z,88.33
2017-04-07T03:51:09.542Z,88.52
2017-04-07T03:52:09.234Z,88.33
2017-04-07T03:53:09.223Z,87.85
2017-04-07T03:54:09.214Z,87.28
2017-04-07T03:55:09.202Z,87.47
2017-04-07T03:56:09.545Z,87.66
2017-04-07T03:57:09.185Z,87.76
2017-04-07T03:58:09.174Z,87.38
2017-04-07T03:59:09.165Z,86.9
2017-04-07T04:00:09.157Z,87.09
2017-04-07T04:01:09.446Z,86.71
2017-04-07T04:02:09.140Z,86.43
2017-04-07T04:03:09.126Z,86.33
2017-04-07T04:04:09.115Z,86.71
2017-04-07T04:05:09.107Z,86.71
2017-04-07T04:06:09.095Z,86.24
2017-04-07T04:07:09.091Z,85.86
2017-04-07T04:08:09.080Z,85.86
2017-04-07T04:09:09.069Z,85.76
2017-04-07T04:10:08.754Z,85.1
2017-04-07T04:11:09.048Z,85.28
2017-04-07T04:12:08.735Z,85.57
2017-04-07T04:13:09.029Z,85.19
2017-04-07T04:14:09.019Z,84.91
2017-04-07T04:15:09.015Z,84.72
2017-04-07T04:16:08.999Z,84.91
2017-04-07T04:17:08.987Z,84.81
2017-04-07T04:18:08.985Z,84.81
2017-04-07T04:19:08.970Z,84.81
2017-04-07T04:20:08.960Z,84.24
2017-04-07T04:21:08.952Z,84.62
2017-04-07T04:22:08.942Z,84.62
2017-04-07T04:23:08.937Z,84.43
2017-04-07T04:24:08.922Z,84.24
2017-04-07T04:25:08.911Z,84.24
2017-04-07T04:26:08.600Z,84.14
2017-04-07T04:27:08.892Z,84.24
2017-04-07T04:28:08.883Z,84.14
2017-04-07T04:29:08.873Z,84.43
2017-04-07T04:30:08.863Z,84.52
2017-04-07T04:31:08.855Z,84.62
2017-04-07T04:32:08.846Z,84.62
2017-04-07T04:33:08.835Z,84.52
2017-04-07T04:34:08.826Z,84.62
2017-04-07T04:35:08.818Z,85.1
2017-04-07T04:36:08.808Z,85.1
2017-04-07T04:37:08.499Z,85.38
2017-04-07T04:38:08.788Z,85.1
2017-04-07T04:39:08.777Z,85.57
2017-04-07T04:40:08.771Z,86.43
2017-04-07T04:41:08.762Z,86.43
2017-04-07T04:42:08.750Z,87.38
2017-04-07T04:43:08.740Z,87.28
2017-04-07T04:44:08.733Z,87.57
2017-04-07T04:45:08.724Z,87.57
2017-04-07T04:46:08.711Z,87.85
2017-04-07T04:47:08.398Z,88.33
2017-04-07T04:48:08.389Z,88.42
2017-04-07T04:49:08.684Z,88.42
2017-04-07T04:50:08.671Z,87.85
2017-04-07T04:51:08.662Z,87.38
2017-04-07T04:52:08.658Z,87.19
2017-04-07T04:53:08.646Z,87.57
2017-04-07T04:54:08.633Z,87.57
2017-04-07T04:55:08.625Z,86.99
2017-04-07T04:56:08.313Z,86.9
2017-04-07T04:57:08.605Z,86.24
2017-04-07T04:58:08.598Z,86.24
2017-04-07T04:59:08.586Z,86.33
2017-04-07T05:00:08.582Z,86.14
2017-04-07T05:01:08.566Z,86.05
2017-04-07T05:02:08.560Z,85.47
2017-04-07T05:03:08.548Z,85.47
2017-04-07T05:04:08.237Z,85.28
2017-04-07T05:05:08.530Z,85.66
2017-04-07T05:06:08.519Z,85.38
2017-04-07T05:07:08.760Z,85.38
2017-04-07T05:08:08.197Z,84.91
2017-04-07T05:09:08.491Z,84.91
2017-04-07T05:10:08.178Z,84.81
2017-04-07T05:11:08.474Z,84.72
2017-04-07T05:12:08.716Z,84.91
2017-04-07T05:13:08.453Z,85.04
2017-04-07T05:14:08.443Z,84.91
2017-04-07T05:15:08.455Z,85.04
2017-04-07T05:16:08.426Z,84.76
2017-04-07T05:17:08.667Z,84.81
2017-04-07T05:18:08.409Z,84.56
2017-04-07T05:19:08.398Z,84.76
2017-04-07T05:20:08.392Z,84.76
2017-04-07T05:21:08.377Z,84.76
2017-04-07T05:22:08.727Z,84.38
2017-04-07T05:23:08.358Z,84.56
2017-04-07T05:24:08.349Z,84.47
2017-04-07T05:25:08.339Z,84.28
2017-04-07T05:26:08.337Z,84.38
2017-04-07T05:27:08.620Z,84.38
2017-04-07T05:28:08.311Z,84.38
2017-04-07T05:29:08.303Z,83.9
2017-04-07T05:30:08.294Z,83.52
2017-04-07T05:31:08.284Z,84.38
2017-04-07T05:32:08.525Z,84.38
2017-04-07T05:33:08.266Z,84.19
2017-04-07T05:34:08.255Z,84.19
2017-04-07T05:35:08.246Z,83.52
2017-04-07T05:36:08.239Z,83.33
2017-04-07T05:37:08.480Z,82.95
2017-04-07T05:38:08.218Z,82.76
2017-04-07T05:39:08.210Z,82.95
2017-04-07T05:40:08.200Z,82.95
2017-04-07T05:41:08.191Z,82.38
2017-04-07T05:42:08.483Z,82.09
2017-04-07T05:43:08.172Z,82.38
2017-04-07T05:44:08.163Z,82.19
2017-04-07T05:45:08.155Z,82.48
2017-04-07T05:46:08.144Z,82.48
2017-04-07T05:47:08.396Z,81.9
2017-04-07T05:48:08.132Z,81.81
2017-04-07T05:49:08.117Z,82
2017-04-07T05:50:08.111Z,81.9
2017-04-07T05:51:08.103Z,82.19
2017-04-07T05:52:08.093Z,82.19
2017-04-07T05:53:08.079Z,82.38
2017-04-07T05:54:07.768Z,82.48
2017-04-07T05:55:08.064Z,82.57
2017-04-07T05:56:08.056Z,82.28
2017-04-07T05:57:08.044Z,82.67
2017-04-07T05:58:08.035Z,83.04
2017-04-07T05:59:08.026Z,82.95
2017-04-07T06:00:08.016Z,82.76
2017-04-07T06:01:08.013Z,83.42
2017-04-07T06:02:07.694Z,84.28
2017-04-07T06:03:07.988Z,83.9
2017-04-07T06:04:07.980Z,84.28
2017-04-07T06:05:07.970Z,84.56
2017-04-07T06:06:07.961Z,84.95
2017-04-07T06:07:07.953Z,84.19
2017-04-07T06:08:07.943Z,84.47
2017-04-07T06:09:07.630Z,84.76
2017-04-07T06:10:07.925Z,84.56
2017-04-07T06:11:07.915Z,84.95
2017-04-07T06:12:07.912Z,85.24
2017-04-07T06:13:07.900Z,85.24
2017-04-07T06:14:07.886Z,85.94
2017-04-07T06:15:07.577Z,85.52
2017-04-07T06:16:07.870Z,86.18
2017-04-07T06:17:07.861Z,86.47
2017-04-07T06:18:08.100Z,87.32
2017-04-07T06:19:07.843Z,87.52
2017-04-07T06:20:07.531Z,87.61
2017-04-07T06:21:07.826Z,87.8
2017-04-07T06:22:07.819Z,88.56
2017-04-07T06:23:08.056Z,88.94
2017-04-07T06:24:07.796Z,88.85
2017-04-07T06:25:07.788Z,88.46
2017-04-07T06:26:07.780Z,88.94
2017-04-07T06:27:07.769Z,89.04
2017-04-07T06:28:08.061Z,89.14
2017-04-07T06:29:07.753Z,89.14
2017-04-07T06:30:07.745Z,89.61
2017-04-07T06:31:07.734Z,89.61
2017-04-07T06:32:07.724Z,89.14
2017-04-07T06:33:07.968Z,90.37
2017-04-07T06:34:07.709Z,90.08
2017-04-07T06:35:07.703Z,89.89
2017-04-07T06:36:07.690Z,90.08
2017-04-07T06:37:07.681Z,90.28
2017-04-07T06:38:08.023Z,89.8
2017-04-07T06:39:07.663Z,89.42
2017-04-07T06:40:07.652Z,90.08
2017-04-07T06:41:07.643Z,90.75
2017-04-07T06:42:07.635Z,90.56
2017-04-07T06:43:07.925Z,90.47
2017-04-07T06:44:07.617Z,89.42
2017-04-07T06:45:07.609Z,89.7
2017-04-07T06:46:07.600Z,90.28
2017-04-07T06:47:07.592Z,90.18
2017-04-07T06:48:07.831Z,90.37
2017-04-07T06:49:07.571Z,89.61
2017-04-07T06:50:07.564Z,89.14
2017-04-07T06:51:07.555Z,89.51
2017-04-07T06:52:07.545Z,89.61
2017-04-07T06:53:07.887Z,89.42
2017-04-07T06:54:07.224Z,89.7
2017-04-07T06:55:07.518Z,89.14
2017-04-07T06:56:07.208Z,89.42
2017-04-07T06:57:07.525Z,89.99
2017-04-07T06:58:07.741Z,90.37
2017-04-07T06:59:07.483Z,90.18
2017-04-07T07:00:07.475Z,89.89
2017-04-07T07:01:07.465Z,90.28
2017-04-07T07:02:07.152Z,89.99
2017-04-07T07:03:07.698Z,90.56
2017-04-07T07:04:07.438Z,89.7
2017-04-07T07:05:07.430Z,89.51
2017-04-07T07:06:07.419Z,89.42
2017-04-07T07:07:07.411Z,89.7
2017-04-07T07:08:07.752Z,89.51
2017-04-07T07:09:07.397Z,90.28
2017-04-07T07:10:07.384Z,90.28
2017-04-07T07:11:07.373Z,89.42
2017-04-07T07:12:07.366Z,90.37
2017-04-07T07:13:07.656Z,90.28
2017-04-07T07:14:07.043Z,90.28
2017-04-07T07:15:07.337Z,90.08
2017-04-07T07:16:07.028Z,90.28
2017-04-07T07:17:07.321Z,90.28
2017-04-07T07:18:07.567Z,90.08
2017-04-07T07:19:07.302Z,90.08
2017-04-07T07:20:07.293Z,90.28
2017-04-07T07:21:07.283Z,89.32
2017-04-07T07:22:07.275Z,88.85
2017-04-07T07:23:07.567Z,88.85
2017-04-07T07:24:07.258Z,88.94
2017-04-07T07:25:07.248Z,89.7
2017-04-07T07:26:07.238Z,89.42
2017-04-07T07:27:07.231Z,89.61
2017-04-07T07:28:06.921Z,89.42
2017-04-07T07:29:07.213Z,90.28
2017-04-07T07:30:07.203Z,90.22
2017-04-07T07:31:07.193Z,89.61
2017-04-07T07:32:07.186Z,88.23
2017-04-07T07:33:07.177Z,88.99
2017-04-07T07:34:07.171Z,88.42
2017-04-07T07:35:07.158Z,88.23
2017-04-07T07:36:07.151Z,88.23
2017-04-07T07:37:07.140Z,88.42
2017-04-07T07:38:07.131Z,88.23
2017-04-07T07:39:07.124Z,87.37
2017-04-07T07:40:07.114Z,87.46
2017-04-07T07:41:07.104Z,87.46
2017-04-07T07:42:07.097Z,87.65
2017-04-07T07:43:07.090Z,87.65
2017-04-07T07:44:07.084Z,87.65
2017-04-07T07:45:07.071Z,87.75
2017-04-07T07:46:07.063Z,87.18
2017-04-07T07:47:07.056Z,87.56
2017-04-07T07:48:07.046Z,87.37
2017-04-07T07:49:07.036Z,86.32
2017-04-07T07:50:07.030Z,86.61
2017-04-07T07:51:07.018Z,86.61
2017-04-07T07:52:07.013Z,86.04
2017-04-07T07:53:07.000Z,85.85
2017-04-07T07:54:06.991Z,86.04
2017-04-07T07:55:06.984Z,85.47
2017-04-07T07:56:06.979Z,85.08
2017-04-07T07:57:06.966Z,85.47
2017-04-07T07:58:06.957Z,84.7
2017-04-07T07:59:06.951Z,85.18
2017-04-07T08:00:06.940Z,84.7
2017-04-07T08:01:06.932Z,84.42
2017-04-07T08:02:06.924Z,84.61
2017-04-07T08:03:06.921Z,84.65
2017-04-07T08:04:06.908Z,84.7
2017-04-07T08:05:06.898Z,84.65
2017-04-07T08:06:06.906Z,84.65
2017-04-07T08:07:06.885Z,84.46
2017-04-07T08:08:06.874Z,83.89
2017-04-07T08:09:06.868Z,84.08
2017-04-07T08:10:06.857Z,84.27
2017-04-07T08:11:06.848Z,83.98
2017-04-07T08:12:06.838Z,83.89
2017-04-07T08:13:06.832Z,83.7
2017-04-07T08:14:06.825Z,83.51
2017-04-07T08:15:06.814Z,83.32
2017-04-07T08:16:06.806Z,82.84
2017-04-07T08:17:06.799Z,82.84
2017-04-07T08:18:06.788Z,83.03
2017-04-07T08:19:06.782Z,83.03
2017-04-07T08:20:06.773Z,82.84
2017-04-07T08:21:06.766Z,82.56
2017-04-07T08:22:06.758Z,82.46
2017-04-07T08:23:06.748Z,82.27
2017-04-07T08:24:06.740Z,82.08
2017-04-07T08:25:06.731Z,81.89
2017-04-07T08:26:06.723Z,81.65
2017-04-07T08:27:06.716Z,82.12
2017-04-07T08:28:06.709Z,81.93
2017-04-07T08:29:06.699Z,82.21
2017-04-07T08:30:06.691Z,81.46
2017-04-07T08:31:06.687Z,81.74
2017-04-07T08:32:06.680Z,81.17
2017-04-07T08:33:06.667Z,81.55
2017-04-07T08:34:06.660Z,81.46
2017-04-07T08:35:06.654Z,81.26
2017-04-07T08:36:06.643Z,80.69
2017-04-07T08:37:06.636Z,81.17
2017-04-07T08:38:06.629Z,80.88
2017-04-07T08:39:06.622Z,81.07
2017-04-07T08:40:06.617Z,80.98
2017-04-07T08:41:06.605Z,81.17
2017-04-07T08:42:06.599Z,81.17
2017-04-07T08:43:06.595Z,81.3
2017-04-07T08:44:06.582Z,80.92
2017-04-07T08:45:06.575Z,80.44
2017-04-07T08:46:06.568Z,80.44
2017-04-07T08:47:06.560Z,80.26
2017-04-07T08:48:06.553Z,80.26
2017-04-07T08:49:06.244Z,80.35
2017-04-07T08:50:06.536Z,80.35
2017-04-07T08:51:06.530Z,80.35
2017-04-07T08:52:06.525Z,80.54
2017-04-07T08:53:06.513Z,80.35
2017-04-07T08:54:06.505Z,80.07
2017-04-07T08:55:06.520Z,80.73
2017-04-07T08:56:06.516Z,81.4
2017-04-07T08:57:06.484Z,81.12
2017-04-07T08:58:06.477Z,81.21
2017-04-07T08:59:06.470Z,81.49
2017-04-07T09:00:06.464Z,81.78
2017-04-07T09:01:06.455Z,81.59
2017-04-07T09:02:06.447Z,81.78
2017-04-07T09:03:06.439Z,81.78
2017-04-07T09:04:06.434Z,81.49
2017-04-07T09:05:06.426Z,81.02
2017-04-07T09:06:06.418Z,80.96
2017-04-07T09:07:06.412Z,81.06
2017-04-07T09:08:06.404Z,81.06
2017-04-07T09:09:06.397Z,80.77
2017-04-07T09:10:06.388Z,80.68
2017-04-07T09:11:06.385Z,80.68
2017-04-07T09:12:06.376Z,80.87
2017-04-07T09:13:06.368Z,80.11
2017-04-07T09:14:06.360Z,80.39
2017-04-07T09:15:06.355Z,80.39
2017-04-07T09:16:06.347Z,79.91
2017-04-07T09:17:06.341Z,79.91
2017-04-07T09:18:06.336Z,80.2
2017-04-07T09:19:06.329Z,80.39
2017-04-07T09:20:06.321Z,80.3
2017-04-07T09:21:06.317Z,80.49
2017-04-07T09:22:06.309Z,81.06
2017-04-07T09:23:06.300Z,80.11
2017-04-07T09:24:06.293Z,80.11
2017-04-07T09:25:06.286Z,80.11
2017-04-07T09:26:06.280Z,80.49
2017-04-07T09:27:06.274Z,80.39
2017-04-07T09:28:06.266Z,80.3
2017-04-07T09:29:06.260Z,79.57
2017-04-07T09:30:06.253Z,79.91
2017-04-07T09:31:06.249Z,79.53
2017-04-07T09:32:06.239Z,80.11
2017-04-07T09:33:06.233Z,80.11
2017-04-07T09:34:06.226Z,79.91
2017-04-07T09:35:06.219Z,80.39
2017-04-07T09:36:06.212Z,80.39
2017-04-07T09:37:06.209Z,80.2
2017-04-07T09:38:06.199Z,80.68
2017-04-07T09:39:06.194Z,81.25
2017-04-07T09:40:06.186Z,81.06
2017-04-07T09:41:06.181Z,80.49
2017-04-07T09:42:06.174Z,80.49
2017-04-07T09:43:06.168Z,81.15
2017-04-07T09:44:06.161Z,80.68
2017-04-07T09:45:06.160Z,80.87
2017-04-07T09:46:06.147Z,80.96
2017-04-07T09:47:06.139Z,80.96
2017-04-07T09:48:06.134Z,80.96
2017-04-07T09:49:06.127Z,80.87
2017-04-07T09:50:05.814Z,80.77
2017-04-07T09:51:06.113Z,81.54
2017-04-07T09:52:06.108Z,80.68
2017-04-07T09:53:06.127Z,80.68
2017-04-07T09:54:06.094Z,81.35
2017-04-07T09:55:06.091Z,81.06
2017-04-07T09:56:06.078Z,81.15
2017-04-07T09:57:05.769Z,81.15
2017-04-07T09:58:06.065Z,80.96
2017-04-07T09:59:06.058Z,80.87
2017-04-07T10:00:06.050Z,81.25
2017-04-07T10:01:06.044Z,80.96
2017-04-07T10:02:06.038Z,81.15
2017-04-07T10:03:06.032Z,81.15
2017-04-07T10:04:06.324Z,80.58
2017-04-07T10:05:06.019Z,80.96
2017-04-07T10:06:06.012Z,81.25
2017-04-07T10:07:06.006Z,80.96
2017-04-07T10:08:05.996Z,81.1
2017-04-07T10:09:06.245Z,80.53
2017-04-07T10:10:05.985Z,80.72
2017-04-07T10:11:05.976Z,81.29
2017-04-07T10:12:05.970Z,81.2
2017-04-07T10:13:05.964Z,81.48
2017-04-07T10:14:06.208Z,81.48
2017-04-07T10:15:05.951Z,81.96
2017-04-07T10:16:05.944Z,80.91
2017-04-07T10:17:05.938Z,81.58
2017-04-07T10:18:05.934Z,81.48
2017-04-07T10:19:06.177Z,82.24
2017-04-07T10:20:05.919Z,82.82
2017-04-07T10:21:05.913Z,82.63
2017-04-07T10:22:05.603Z,82.15
2017-04-07T10:23:05.902Z,81.38
2017-04-07T10:24:06.143Z,82.15
2017-04-07T10:25:05.889Z,81.86
2017-04-07T10:26:05.881Z,82.34
2017-04-07T10:27:05.874Z,82.24
2017-04-07T10:28:05.870Z,82.24
2017-04-07T10:29:06.163Z,82.34
2017-04-07T10:30:05.856Z,81.86
2017-04-07T10:31:05.546Z,81.2
2017-04-07T10:32:06.190Z,80.81
2017-04-07T10:33:05.836Z,80.85
2017-04-07T10:34:06.080Z,80.19
2017-04-07T10:35:05.521Z,79.23
2017-04-07T10:36:05.817Z,79.43
2017-04-07T10:37:05.508Z,78.66
2017-04-07T10:38:05.806Z,78.75
2017-04-07T10:39:06.103Z,78.47
2017-04-07T10:40:05.492Z,78.18
2017-04-07T10:41:05.787Z,77.42
2017-04-07T10:42:05.506Z,77.7
2017-04-07T10:43:05.778Z,77.08
2017-04-07T10:44:06.071Z,77.17
2017-04-07T10:45:05.462Z,76.5
2017-04-07T10:46:05.759Z,76.6
2017-04-07T10:47:05.753Z,76.5
2017-04-07T10:48:05.761Z,77.36
2017-04-07T10:49:06.043Z,76.88
2017-04-07T10:50:05.736Z,76.12
2017-04-07T10:51:05.728Z,75.26
2017-04-07T10:52:05.721Z,75.26
2017-04-07T10:53:05.717Z,75.16
2017-04-07T10:54:05.963Z,75.07
2017-04-07T10:55:05.707Z,74.91
2017-04-07T10:56:05.702Z,75.39
2017-04-07T10:57:05.715Z,74.24
2017-04-07T10:58:05.705Z,73.96
2017-04-07T10:59:05.985Z,73.39
2017-04-07T11:00:05.376Z,73.1
2017-04-07T11:01:05.676Z,73.29
2017-04-07T11:02:05.671Z,73.39
2017-04-07T11:03:05.664Z,73
2017-04-07T11:04:05.907Z,73.19
2017-04-07T11:05:05.652Z,72.56
2017-04-07T11:06:05.662Z,72.56
2017-04-07T11:07:05.642Z,71.7
2017-04-07T11:08:05.637Z,71.51
2017-04-07T11:09:05.883Z,71.13
2017-04-07T11:10:05.627Z,71.22
2017-04-07T11:11:05.625Z,70.94
2017-04-07T11:12:05.616Z,70.46
2017-04-07T11:13:05.619Z,69.89
2017-04-07T11:14:05.907Z,70.17
2017-04-07T11:15:05.603Z,69.98
2017-04-07T11:16:05.598Z,70.46
2017-04-07T11:17:05.593Z,70.75
2017-04-07T11:18:05.588Z,70.27
2017-04-07T11:19:05.833Z,69.21
2017-04-07T11:20:05.276Z,69.41
2017-04-07T11:21:05.585Z,69.5
2017-04-07T11:22:05.569Z,69.6
2017-04-07T11:23:05.262Z,70.36
2017-04-07T11:24:05.861Z,69.89
2017-04-07T11:25:05.560Z,69.5
2017-04-07T11:26:05.248Z,69.7
2017-04-07T11:27:05.547Z,69.5
2017-04-07T11:28:05.560Z,69.41
2017-04-07T11:29:05.889Z,69.6
2017-04-07T11:30:05.545Z,69.21
2017-04-07T11:31:05.526Z,69.7
2017-04-07T11:32:05.521Z,69.41
2017-04-07T11:33:05.532Z,70.17
2017-04-07T11:34:05.764Z,69.7
2017-04-07T11:35:05.519Z,70.84
2017-04-07T11:36:05.512Z,70.46
2017-04-07T11:37:05.195Z,70.36
2017-04-07T11:38:05.499Z,70.75
2017-04-07T11:39:05.738Z,70.17
2017-04-07T11:40:05.486Z,70.56
2017-04-07T11:41:05.479Z,70.65
2017-04-07T11:42:05.492Z,71.03
2017-04-07T11:43:05.480Z,70.75
2017-04-07T11:44:05.730Z,70.65
2017-04-07T11:45:05.466Z,70.65
2017-04-07T11:46:05.161Z,71.22
2017-04-07T11:47:05.455Z,70.65
2017-04-07T11:48:05.457Z,70.75
2017-04-07T11:49:05.753Z,70.94
2017-04-07T11:50:05.448Z,70.75
2017-04-07T11:51:05.443Z,70.46
2017-04-07T11:52:05.423Z,70.56
2017-04-07T11:53:05.421Z,71.13
2017-04-07T11:54:05.764Z,71.22
2017-04-07T11:55:05.108Z,71.32
2017-04-07T11:56:05.407Z,71.03
2017-04-07T11:57:05.400Z,71.22
2017-04-07T11:58:05.396Z,71.13
2017-04-07T11:59:05.645Z,70.94
2017-04-07T12:00:05.081Z,71.42
2017-04-07T12:01:05.382Z,71.7
2017-04-07T12:02:05.374Z,71.7
2017-04-07T12:03:05.373Z,72.47
2017-04-07T12:04:05.616Z,72.28
2017-04-07T12:05:05.359Z,71.61
2017-04-07T12:06:05.355Z,71.51
2017-04-07T12:07:05.352Z,71.7
2017-04-07T12:08:05.346Z,72.18
2017-04-07T12:09:05.590Z,72.28
2017-04-07T12:10:05.335Z,72.94
2017-04-07T12:11:05.331Z,73.23
2017-04-07T12:12:05.328Z,72.94
2017-04-07T12:13:05.322Z,72.66
2017-04-07T12:14:05.565Z,72.94
2017-04-07T12:15:05.312Z,73.04
2017-04-07T12:16:05.314Z,73.27
2017-04-07T12:17:05.302Z,73.43
2017-04-07T12:18:05.296Z,72.94
2017-04-07T12:19:05.595Z,73.23
2017-04-07T12:20:05.290Z,73.61
2017-04-07T12:21:05.283Z,73.14
2017-04-07T12:22:05.280Z,73.43
2017-04-07T12:23:05.274Z,73.99
2017-04-07T12:24:05.518Z,73.23
2017-04-07T12:25:04.961Z,73.14
2017-04-07T12:26:05.287Z,73.43
2017-04-07T12:27:05.258Z,73.23
2017-04-07T12:28:05.249Z,73.33
2017-04-07T12:29:05.596Z,73.33
2017-04-07T12:30:05.242Z,73.61
2017-04-07T12:31:05.235Z,73.9
2017-04-07T12:32:05.228Z,73.8
2017-04-07T12:33:05.225Z,74.09
2017-04-07T12:34:05.468Z,74.19
2017-04-07T12:35:05.215Z,73.61
2017-04-07T12:36:05.210Z,73.61
2017-04-07T12:37:05.204Z,73.33
2017-04-07T12:38:05.199Z,73.61
2017-04-07T12:39:05.498Z,73.96
2017-04-07T12:40:05.192Z,74.48
2017-04-07T12:41:05.184Z,74.66
2017-04-07T12:42:05.178Z,74.76
2017-04-07T12:43:05.174Z,74.76
2017-04-07T12:44:05.521Z,74.48
2017-04-07T12:45:04.860Z,74.66
2017-04-07T12:46:05.158Z,74.09
2017-04-07T12:47:05.154Z,73.99
2017-04-07T12:48:05.150Z,74.48
2017-04-07T12:49:05.400Z,74.76
2017-04-07T12:50:05.142Z,74.28
2017-04-07T12:51:05.135Z,74.28
2017-04-07T12:52:05.129Z,73.61
2017-04-07T12:53:05.126Z,73.52
2017-04-07T12:54:05.371Z,73.04
2017-04-07T12:55:05.114Z,72.94